LRC652 MROC-MGGT
Flight info
| Callsign | LRC652 |
|---|---|
| Flight time | N/A |
| Altitude | 38000 |
| Route | NANJO4U ULAPO UA502 MGA UA317 CAT |
| Aircraft | A20N/M-SDE2E3FGHIRWXY/LB1 |
Departure
| Time | N/A |
|---|---|
| Airport | Juan Santamaría International Airport (MROC) |
Arrival
| Time | 2026-04-30 00:32 |
|---|---|
| Airport | La Aurora International Airport (MGGT) |
| Time | Latitude | Longitude | Altitude | Speed | Heading |
|---|---|---|---|---|---|
| 2026-04-30 00:16 | 13.99056 | -89.77296 | 28859 ft | 426 kts | 304° |
| 2026-04-30 00:16 | 14.00708 | -89.79787 | 27802 ft | 416 kts | 304° |
| 2026-04-30 00:16 | 14.02310 | -89.82202 | 26708 ft | 409 kts | 304° |
| 2026-04-30 00:16 | 14.03891 | -89.84587 | 25590 ft | 403 kts | 304° |
| 2026-04-30 00:17 | 14.05445 | -89.86941 | 24469 ft | 398 kts | 304° |
| 2026-04-30 00:17 | 14.06939 | -89.89323 | 23325 ft | 393 kts | 304° |
| 2026-04-30 00:17 | 14.08378 | -89.91685 | 22628 ft | 385 kts | 304° |
| 2026-04-30 00:17 | 14.09783 | -89.93999 | 22159 ft | 378 kts | 305° |
| 2026-04-30 00:18 | 14.11163 | -89.96260 | 21721 ft | 372 kts | 306° |
| 2026-04-30 00:18 | 14.12554 | -89.98532 | 21284 ft | 371 kts | 306° |
| 2026-04-30 00:18 | 14.13942 | -90.00797 | 20848 ft | 370 kts | 307° |
| 2026-04-30 00:18 | 14.15297 | -90.03006 | 20473 ft | 368 kts | 307° |
| 2026-04-30 00:19 | 14.16656 | -90.05221 | 20080 ft | 364 kts | 307° |
| 2026-04-30 00:19 | 14.18014 | -90.07432 | 19665 ft | 362 kts | 307° |
| 2026-04-30 00:19 | 14.19357 | -90.09619 | 19244 ft | 361 kts | 307° |
| 2026-04-30 00:19 | 14.20700 | -90.11810 | 18813 ft | 360 kts | 306° |
| 2026-04-30 00:20 | 14.21970 | -90.14005 | 18388 ft | 359 kts | 305° |
| 2026-04-30 00:20 | 14.23221 | -90.16219 | 17962 ft | 357 kts | 304° |
| 2026-04-30 00:20 | 14.24465 | -90.18429 | 17537 ft | 355 kts | 304° |
| 2026-04-30 00:20 | 14.25701 | -90.20607 | 17118 ft | 353 kts | 303° |
| 2026-04-30 00:21 | 14.26912 | -90.22810 | 16694 ft | 351 kts | 304° |
| 2026-04-30 00:21 | 14.28128 | -90.24972 | 16279 ft | 349 kts | 304° |
| 2026-04-30 00:21 | 14.29361 | -90.27145 | 15858 ft | 346 kts | 303° |
| 2026-04-30 00:21 | 14.30548 | -90.29264 | 15463 ft | 344 kts | 303° |
| 2026-04-30 00:22 | 14.31775 | -90.31409 | 15034 ft | 343 kts | 307° |
| 2026-04-30 00:22 | 14.33189 | -90.33364 | 14579 ft | 338 kts | 313° |
| 2026-04-30 00:22 | 14.34856 | -90.35065 | 14119 ft | 335 kts | 321° |
| 2026-04-30 00:22 | 14.36728 | -90.36476 | 13712 ft | 331 kts | 330° |
| 2026-04-30 00:23 | 14.38767 | -90.37591 | 13309 ft | 328 kts | 340° |
| 2026-04-30 00:23 | 14.40888 | -90.38376 | 12928 ft | 327 kts | 347° |
| 2026-04-30 00:23 | 14.43110 | -90.38833 | 12530 ft | 324 kts | 355° |
| 2026-04-30 00:23 | 14.45384 | -90.38947 | 12146 ft | 322 kts | 2° |
| 2026-04-30 00:24 | 14.47621 | -90.38844 | 11759 ft | 321 kts | 5° |
| 2026-04-30 00:24 | 14.49864 | -90.38671 | 11382 ft | 321 kts | 5° |
| 2026-04-30 00:24 | 14.52083 | -90.38491 | 10969 ft | 321 kts | 4° |
| 2026-04-30 00:24 | 14.54330 | -90.38334 | 10541 ft | 321 kts | 4° |
| 2026-04-30 00:25 | 14.56568 | -90.38184 | 10209 ft | 317 kts | 5° |
| 2026-04-30 00:25 | 14.58761 | -90.38033 | 9996 ft | 307 kts | 6° |
| 2026-04-30 00:25 | 14.60847 | -90.37878 | 9825 ft | 293 kts | 6° |
| 2026-04-30 00:25 | 14.62805 | -90.37731 | 9726 ft | 268 kts | 5° |
| 2026-04-30 00:26 | 14.64621 | -90.37586 | 9634 ft | 257 kts | 4° |
| 2026-04-30 00:26 | 14.66420 | -90.37455 | 9590 ft | 258 kts | 4° |
| 2026-04-30 00:26 | 14.68198 | -90.37412 | 9400 ft | 253 kts | 357° |
| 2026-04-30 00:26 | 14.69912 | -90.37816 | 9031 ft | 255 kts | 341° |
| 2026-04-30 00:27 | 14.71458 | -90.38720 | 8688 ft | 256 kts | 322° |
| 2026-04-30 00:27 | 14.72674 | -90.40056 | 8359 ft | 256 kts | 302° |
| 2026-04-30 00:27 | 14.73413 | -90.41711 | 8176 ft | 246 kts | 285° |
| 2026-04-30 00:27 | 14.73649 | -90.43392 | 8130 ft | 229 kts | 270° |
| 2026-04-30 00:28 | 14.73452 | -90.44965 | 8100 ft | 211 kts | 254° |
| 2026-04-30 00:28 | 14.72928 | -90.46301 | 7934 ft | 191 kts | 241° |
| 2026-04-30 00:28 | 14.72198 | -90.47362 | 7678 ft | 173 kts | 229° |
| 2026-04-30 00:28 | 14.71347 | -90.48192 | 7504 ft | 162 kts | 217° |
| 2026-04-30 00:29 | 14.70397 | -90.48823 | 7276 ft | 159 kts | 204° |
| 2026-04-30 00:29 | 14.69382 | -90.49234 | 7058 ft | 157 kts | 195° |
| 2026-04-30 00:29 | 14.68321 | -90.49560 | 6840 ft | 158 kts | 194° |
| 2026-04-30 00:29 | 14.67261 | -90.49895 | 6612 ft | 158 kts | 193° |
| 2026-04-30 00:30 | 14.66197 | -90.50222 | 6394 ft | 159 kts | 193° |
| 2026-04-30 00:30 | 14.65142 | -90.50543 | 6156 ft | 157 kts | 196° |
| 2026-04-30 00:30 | 14.64395 | -90.50781 | 6013 ft | 158 kts | 196° |
| 2026-04-30 00:30 | 14.64339 | -90.50800 | 6003 ft | 158 kts | 196° |
| 2026-04-30 00:31 | 14.63285 | -90.51173 | 5762 ft | 158 kts | 197° |
| 2026-04-30 00:31 | 14.62252 | -90.51513 | 5609 ft | 156 kts | 193° |
| 2026-04-30 00:31 | 14.61202 | -90.51810 | 5417 ft | 153 kts | 197° |
| 2026-04-30 00:31 | 14.60189 | -90.52142 | 5191 ft | 150 kts | 196° |
| 2026-04-30 00:32 | 14.59205 | -90.52467 | 4938 ft | 147 kts | 197° |
| 2026-04-30 00:32 | 14.58280 | -90.52763 | 4875 ft | 122 kts | 198° |
| 2026-04-30 00:32 | 14.57634 | -90.52972 | 4876 ft | 67 kts | 197° |
| 2026-04-30 00:32 | 14.57438 | -90.53080 | 4880 ft | 13 kts | 300° |
| 2026-04-30 00:33 | 14.57509 | -90.53082 | 4880 ft | 14 kts | 18° |
| 2026-04-30 00:33 | 14.57610 | -90.53050 | 4876 ft | 16 kts | 18° |
| 2026-04-30 00:33 | 14.57745 | -90.53005 | 4873 ft | 17 kts | 18° |
| 2026-04-30 00:33 | 14.57869 | -90.52965 | 4870 ft | 19 kts | 17° |
| 2026-04-30 00:34 | 14.58000 | -90.52924 | 4868 ft | 19 kts | 18° |
| 2026-04-30 00:34 | 14.58096 | -90.52891 | 4868 ft | 19 kts | 17° |
| 2026-04-30 00:34 | 14.58165 | -90.52870 | 4870 ft | 17 kts | 17° |
| 2026-04-30 00:35 | 14.58272 | -90.52835 | 4873 ft | 15 kts | 18° |
| 2026-04-30 00:35 | 14.58358 | -90.52808 | 4878 ft | 10 kts | 17° |
| 2026-04-30 00:35 | 14.58446 | -90.52779 | 4883 ft | 15 kts | 17° |
| 2026-04-30 00:35 | 14.58536 | -90.52750 | 4887 ft | 11 kts | 18° |
| 2026-04-30 00:36 | 14.58591 | -90.52733 | 4889 ft | 14 kts | 18° |
| 2026-04-30 00:36 | 14.58614 | -90.52724 | 4889 ft | 0 kts | 18° |
| 2026-04-30 00:36 | 14.58633 | -90.52718 | 4890 ft | 9 kts | 17° |
| 2026-04-30 00:36 | 14.58695 | -90.52753 | 4897 ft | 10 kts | 293° |
| 2026-04-30 00:37 | 14.58714 | -90.52795 | 4902 ft | 2 kts | 302° |
| 2026-04-30 00:37 | 14.58725 | -90.52809 | 4904 ft | 6 kts | 317° |
| 2026-04-30 00:37 | 14.58781 | -90.52819 | 4905 ft | 8 kts | 22° |
| 2026-04-30 00:37 | 14.58843 | -90.52801 | 4905 ft | 9 kts | 351° |
| 2026-04-30 00:38 | 14.58878 | -90.52856 | 4905 ft | 9 kts | 292° |
| 2026-04-30 00:38 | 14.58892 | -90.52891 | 4905 ft | 4 kts | 291° |
| 2026-04-30 00:38 | 14.58894 | -90.52896 | 4905 ft | 0 kts | 292° |